Norris City, Illinois
Current Conditions -  °F | °C
As of 2:35 PM on Tuesday 25 Nov 2014 (Local Time) from KCUL Reporting Station
Broken Clouds Broken Clouds  
Wind Chill: 33°   Ceiling: 2500
Heat Index: 38°   Visibility: 10mi
Dew Point: 30°   Wind: 7mph
Humidity: 72%   Direction: 330°NNW
Pressure: 30.17"   Gusts: NA
Location:  37.98°N, 88.33°W
Report Text: KCUL 252035Z AUTO 33006KT 10SM BKN025 04/M01 A3017 RMK AO2 T00361011
Loading
Personal Weather Stations






























Interactive Weather Map New forecast layout! Learn more

10-Day Weather Forecast

Advertisements
Track Severe Weather on mobile